Arrowsic, Maine
Current Conditions -  °F | °C
As of 7:03 AM on Thursday 23 Oct 2014 (Local Time) from KIWI Reporting Station
Moderate Rain Moderate Rain  
Wind Chill:   Ceiling: 1300
Heat Index:   Visibility: 4mi
Dew Point:   Wind: 8mph
Humidity: 93%   Direction: 50°NE
Pressure: 29.83"   Gusts: 24mph
Location:  43.8797°N, 69.8408°W
Report Text: KIWI 231103Z AUTO 05007G21KT 4SM RA BR FEW009 BKN013 OVC019 09/08 A2983 RMK AO2 P0003 T00940083
Loading
Personal Weather Stations






























Interactive Weather Map
Tropical Storm Tracking
New forecast layout! Learn more

10-Day Weather Forecast

Advertisements
Track Severe Weather on mobile